TimePDT,TemperatureF,Dew PointF,Humidity,Sea Level PressureIn,VisibilityMPH,Wind Direction,Wind SpeedMPH,Gust SpeedMPH,PrecipitationIn,Events,Conditions,WindDirDegrees,DateUTC
12:53 AM,66.9,39.0,36,29.92,10.0,South,3.5,-,N/A,,Scattered Clouds,170,2013-07-30 07:53:00
1:53 AM,66.9,39.9,37,29.92,10.0,ENE,3.5,-,N/A,,Scattered Clouds,70,2013-07-30 08:53:00
2:53 AM,66.0,45.0,47,29.94,10.0,ENE,4.6,-,N/A,,Mostly Cloudy,70,2013-07-30 09:53:00
3:53 AM,64.9,45.0,48,29.95,10.0,Calm,Calm,-,N/A,,Mostly Cloudy,0,2013-07-30 10:53:00
4:53 AM,63.0,44.1,50,29.96,10.0,ENE,4.6,-,N/A,,Mostly Cloudy,60,2013-07-30 11:53:00
5:53 AM,63.0,46.9,56,29.98,10.0,ENE,4.6,-,N/A,,Mostly Cloudy,60,2013-07-30 12:53:00
6:53 AM,64.9,48.0,54,29.99,10.0,ENE,9.2,-,N/A,,Mostly Cloudy,60,2013-07-30 13:53:00
7:53 AM,66.9,48.0,51,30.01,10.0,ENE,8.1,-,N/A,,Mostly Cloudy,60,2013-07-30 14:53:00
8:53 AM,69.1,48.0,47,30.02,10.0,East,5.8,-,N/A,,Mostly Cloudy,100,2013-07-30 15:53:00
9:53 AM,73.0,48.0,41,30.03,10.0,ENE,4.6,-,N/A,,Mostly Cloudy,60,2013-07-30 16:53:00
10:53 AM,75.9,45.0,33,30.04,10.0,Calm,Calm,-,N/A,,Scattered Clouds,0,2013-07-30 17:53:00
11:53 AM,80.1,45.0,29,30.04,10.0,Calm,Calm,-,N/A,,Mostly Cloudy,0,2013-07-30 18:53:00
12:53 PM,84.0,43.0,24,30.02,10.0,Variable,3.5,-,N/A,,Mostly Cloudy,0,2013-07-30 19:53:00
1:53 PM,84.9,37.0,18,30.02,10.0,SW,4.6,-,N/A,,Scattered Clouds,220,2013-07-30 20:53:00
2:53 PM,84.9,36.0,17,30.02,10.0,Variable,6.9,-,N/A,,Scattered Clouds,0,2013-07-30 21:53:00
3:53 PM,88.0,33.1,14,30.01,10.0,WSW,11.5,-,N/A,,Scattered Clouds,250,2013-07-30 22:53:00
4:53 PM,88.0,30.9,13,30.01,10.0,North,6.9,-,N/A,,Scattered Clouds,350,2013-07-30 23:53:00
5:53 PM,86.0,36.0,17,30.01,10.0,East,3.5,-,N/A,,Scattered Clouds,80,2013-07-31 00:53:00
6:53 PM,86.0,35.1,16,30.00,10.0,North,6.9,-,N/A,,Scattered Clouds,360,2013-07-31 01:53:00
7:53 PM,82.9,36.0,19,30.01,10.0,NNE,3.5,-,N/A,,Scattered Clouds,20,2013-07-31 02:53:00
8:53 PM,81.0,37.0,21,30.03,10.0,East,3.5,-,N/A,,Scattered Clouds,90,2013-07-31 03:53:00
9:53 PM,75.9,37.9,25,30.04,10.0,SSE,3.5,-,N/A,,Partly Cloudy,160,2013-07-31 04:53:00
10:53 PM,75.0,37.9,26,30.04,10.0,South,3.5,-,N/A,,Partly Cloudy,170,2013-07-31 05:53:00